createdAt,value
2023-01-18T00:00:39.341Z,99003.75
2023-01-18T00:03:12.958Z,99004.50
2023-01-18T00:05:41.051Z,99008.69
2023-01-18T00:08:13.308Z,99000.88
2023-01-18T00:10:40.442Z,99006.97
2023-01-18T00:13:08.263Z,98999.19
2023-01-18T00:15:36.312Z,98994.84
2023-01-18T00:18:03.909Z,98995.72
2023-01-18T00:20:31.545Z,99002.28
2023-01-18T00:23:01.588Z,98981.63
2023-01-18T00:25:30.225Z,98990.03
2023-01-18T00:27:57.590Z,98991.81
2023-01-18T00:30:30.227Z,99002.28
2023-01-18T00:32:58.992Z,99007.44
2023-01-18T00:35:26.552Z,98997.31
2023-01-18T00:37:54.119Z,99006.84
2023-01-18T00:40:22.681Z,99000.03
2023-01-18T00:43:08.369Z,99013.56
2023-01-18T00:45:35.487Z,99011.97
2023-01-18T00:48:03.787Z,99011.13
2023-01-18T00:50:30.839Z,99008.56
2023-01-18T00:53:00.087Z,99011.16
2023-01-18T00:55:27.703Z,99002.34
2023-01-18T00:57:55.026Z,99019.47
2023-01-18T01:00:23.583Z,99013.50
2023-01-18T01:02:51.603Z,99005.44
2023-01-18T01:05:40.937Z,99020.72
2023-01-18T01:08:08.311Z,99011.28
2023-01-18T01:10:35.570Z,99011.44
2023-01-18T01:13:21.570Z,99018.09
2023-01-18T01:16:07.323Z,99017.97
2023-01-18T01:18:52.606Z,99015.38
2023-01-18T01:21:38.251Z,99005.75
2023-01-18T01:24:24.175Z,99015.31
2023-01-18T01:26:51.283Z,99022.78
2023-01-18T01:29:18.431Z,99017.47
2023-01-18T01:31:45.720Z,99012.47
2023-01-18T01:34:12.816Z,99015.97
2023-01-18T01:36:40.006Z,99013.34
2023-01-18T01:39:10.853Z,99009.91
2023-01-18T01:41:37.976Z,99011.41
2023-01-18T01:44:30.649Z,99035.41
2023-01-18T01:47:02.995Z,99016.28
2023-01-18T01:49:50.251Z,99031.88
2023-01-18T01:52:23.929Z,99031.53
2023-01-18T01:55:02.271Z,99031.53
2023-01-18T01:57:33.982Z,99022.16
2023-01-18T02:00:05.365Z,99034.97
2023-01-18T02:02:34.172Z,99029.69
2023-01-18T02:05:04.162Z,99030.53
2023-01-18T02:07:32.129Z,99038.84
2023-01-18T02:10:00.793Z,99045.69
2023-01-18T02:12:29.888Z,99037.09
2023-01-18T02:14:59.564Z,99040.56
2023-01-18T02:17:51.196Z,99044.81
2023-01-18T02:20:48.325Z,99054.16
2023-01-18T02:23:46.030Z,99058.34
2023-01-18T02:26:31.671Z,99060.00
2023-01-18T02:29:17.564Z,99057.47
2023-01-18T02:32:00.329Z,99058.34
2023-01-18T02:34:41.074Z,99064.28
2023-01-18T02:37:15.807Z,99058.31
2023-01-18T02:40:21.292Z,99063.38
2023-01-18T02:43:07.842Z,99046.09
2023-01-18T02:46:01.465Z,99057.22
2023-01-18T02:48:43.356Z,99063.16
2023-01-18T02:51:10.800Z,99070.22
2023-01-18T02:53:43.722Z,99067.75
2023-01-18T02:56:13.069Z,99069.50
2023-01-18T02:59:17.996Z,99057.38
2023-01-18T03:01:50.555Z,99074.56
2023-01-18T03:04:38.775Z,99072.81
2023-01-18T03:07:17.280Z,99066.59
2023-01-18T03:09:46.055Z,99065.63
2023-01-18T03:12:48.557Z,99069.22
2023-01-18T03:15:57.912Z,99076.03
2023-01-18T03:19:01.315Z,99063.97
2023-01-18T03:21:43.025Z,99062.28
2023-01-18T03:24:11.708Z,99075.03
2023-01-18T03:26:44.589Z,99068.25
2023-01-18T03:29:32.275Z,99074.31
2023-01-18T03:32:26.486Z,99074.31
2023-01-18T03:34:53.380Z,99083.50
2023-01-18T03:37:31.996Z,99089.34
2023-01-18T03:40:06.376Z,99083.34
2023-01-18T03:42:57.386Z,99079.09
2023-01-18T03:45:33.326Z,99081.63
2023-01-18T03:48:01.914Z,99084.19
2023-01-18T03:50:43.955Z,99069.44
2023-01-18T03:53:15.167Z,99067.78
2023-01-18T03:55:52.941Z,99081.44
2023-01-18T03:58:24.600Z,99087.34
2023-01-18T04:00:53.036Z,99078.75
2023-01-18T04:03:20.159Z,99083.69
2023-01-18T04:05:47.404Z,99072.44
2023-01-18T04:08:15.325Z,99084.50
2023-01-18T04:10:42.348Z,99087.09
2023-01-18T04:13:09.393Z,99079.44
2023-01-18T04:15:36.535Z,99084.50
2023-01-18T04:18:04.029Z,99093.75
2023-01-18T04:20:34.103Z,99093.16
2023-01-18T04:23:01.434Z,99086.31
2023-01-18T04:25:29.341Z,99099.03
2023-01-18T04:27:56.349Z,99098.88
2023-01-18T04:30:23.310Z,99098.81
2023-01-18T04:32:50.272Z,99103.78
2023-01-18T04:35:17.391Z,99097.81
2023-01-18T04:37:44.559Z,99100.16
2023-01-18T04:40:12.256Z,99097.50
2023-01-18T04:42:39.309Z,99109.28
2023-01-18T04:45:06.832Z,99112.81
2023-01-18T04:47:34.206Z,99107.53
2023-01-18T04:50:01.311Z,99106.69
2023-01-18T04:52:32.075Z,99111.75
2023-01-18T04:54:59.557Z,99127.25
2023-01-18T04:57:26.664Z,99123.09
2023-01-18T04:59:53.823Z,99118.97
2023-01-18T05:02:21.001Z,99122.41
2023-01-18T05:04:48.132Z,99129.09
2023-01-18T05:07:15.176Z,99126.63
2023-01-18T05:09:42.150Z,99130.88
2023-01-18T05:12:09.159Z,99121.34
2023-01-18T05:14:36.418Z,99141.03
2023-01-18T05:17:03.473Z,99131.63
2023-01-18T05:19:30.557Z,99134.28
2023-01-18T05:21:58.097Z,99134.31
2023-01-18T05:24:25.156Z,99135.41
2023-01-18T05:26:52.956Z,99137.94
2023-01-18T05:29:20.068Z,99139.75
2023-01-18T05:31:47.219Z,99134.47
2023-01-18T05:34:14.386Z,99148.88
2023-01-18T05:36:41.367Z,99146.28
2023-01-18T05:39:09.303Z,99133.41
2023-01-18T05:41:37.002Z,99146.19
2023-01-18T05:44:04.168Z,99143.66
2023-01-18T05:46:31.314Z,99156.53
2023-01-18T05:48:59.414Z,99157.69
2023-01-18T05:51:26.578Z,99160.22
2023-01-18T05:53:54.337Z,99148.94
2023-01-18T05:56:21.494Z,99167.94
2023-01-18T05:58:48.542Z,99159.28
2023-01-18T06:01:15.573Z,99175.53
2023-01-18T06:03:42.667Z,99169.56
2023-01-18T06:06:09.749Z,99178.41
2023-01-18T06:08:37.394Z,99167.41
2023-01-18T06:11:04.713Z,99176.00
2023-01-18T06:13:32.817Z,99167.34
2023-01-18T06:16:01.410Z,99185.44
2023-01-18T06:18:31.384Z,99182.97
2023-01-18T06:21:01.637Z,99194.94
2023-01-18T06:23:30.153Z,99196.78
2023-01-18T06:25:58.256Z,99195.09
2023-01-18T06:28:26.005Z,99199.16
2023-01-18T06:30:55.257Z,99207.63
2023-01-18T06:33:24.227Z,99200.16
2023-01-18T06:35:52.175Z,99207.09
2023-01-18T06:38:19.286Z,99213.09
2023-01-18T06:40:46.314Z,99205.38
2023-01-18T06:43:16.811Z,99219.97
2023-01-18T06:45:43.988Z,99226.72
2023-01-18T06:48:11.005Z,99215.50
2023-01-18T06:50:38.109Z,99217.91
2023-01-18T06:53:05.202Z,99231.78
2023-01-18T06:55:32.358Z,99232.44
2023-01-18T06:57:59.509Z,99239.44
2023-01-18T07:00:27.017Z,99238.59
2023-01-18T07:02:54.935Z,99232.63
2023-01-18T07:05:22.045Z,99231.97
2023-01-18T07:07:49.179Z,99230.97
2023-01-18T07:10:16.916Z,99246.44
2023-01-18T07:12:48.585Z,99236.38
2023-01-18T07:15:21.944Z,99239.69
2023-01-18T07:17:50.654Z,99243.53
2023-01-18T07:20:18.239Z,99243.44
2023-01-18T07:22:45.585Z,99258.00
2023-01-18T07:25:18.638Z,99260.38
2023-01-18T07:27:46.160Z,99267.13
2023-01-18T07:30:13.493Z,99262.72
2023-01-18T07:32:46.819Z,99265.25
2023-01-18T07:35:14.105Z,99255.00
2023-01-18T07:37:41.230Z,99261.88
2023-01-18T07:40:10.455Z,99263.59
2023-01-18T07:42:37.819Z,99274.75
2023-01-18T07:45:08.706Z,99266.00
2023-01-18T07:47:36.969Z,99274.75
2023-01-18T07:50:04.263Z,99268.00
2023-01-18T07:52:31.561Z,99275.69
2023-01-18T07:54:58.631Z,99281.81
2023-01-18T07:57:26.243Z,99267.94
2023-01-18T07:59:53.409Z,99283.47
2023-01-18T08:02:20.635Z,99287.75
2023-01-18T08:04:49.996Z,99287.84
2023-01-18T08:07:17.947Z,99292.06
2023-01-18T08:09:45.015Z,99292.03
2023-01-18T08:12:18.112Z,99293.75
2023-01-18T08:14:45.960Z,99303.16
2023-01-18T08:17:13.122Z,99300.84
2023-01-18T08:19:40.415Z,99310.25
2023-01-18T08:22:08.340Z,99313.88
2023-01-18T08:24:35.715Z,99324.19
2023-01-18T08:27:03.068Z,99315.66
2023-01-18T08:29:30.165Z,99317.50
2023-01-18T08:32:00.032Z,99302.97
2023-01-18T08:34:27.134Z,99325.47
2023-01-18T08:36:54.874Z,99330.59
2023-01-18T08:39:21.976Z,99331.88
2023-01-18T08:41:49.548Z,99318.22
2023-01-18T08:44:16.713Z,99334.31
2023-01-18T08:46:43.851Z,99343.06
2023-01-18T08:49:10.981Z,99334.16
2023-01-18T08:51:38.204Z,99338.50
2023-01-18T08:54:06.962Z,99339.63
2023-01-18T08:56:34.187Z,99336.28
2023-01-18T08:59:02.795Z,99347.53
2023-01-18T09:01:30.065Z,99353.56
2023-01-18T09:03:58.498Z,99355.31
2023-01-18T09:06:26.593Z,99358.84
2023-01-18T09:08:54.451Z,99355.44
2023-01-18T09:11:21.776Z,99360.81
2023-01-18T09:14:00.297Z,99360.75
2023-01-18T09:16:29.488Z,99360.00
2023-01-18T09:18:57.486Z,99360.22
2023-01-18T09:21:24.927Z,99344.72
2023-01-18T09:23:52.081Z,99365.53
2023-01-18T09:26:20.973Z,99370.81
2023-01-18T09:28:52.130Z,99387.09
2023-01-18T09:31:21.078Z,99375.38
2023-01-18T09:33:53.257Z,99382.63
2023-01-18T09:36:26.449Z,99390.63
2023-01-18T09:38:56.104Z,99395.28
2023-01-18T09:41:30.376Z,99395.50
2023-01-18T09:44:02.739Z,99394.88
2023-01-18T09:46:36.108Z,99399.44
2023-01-18T09:49:06.973Z,99405.66
2023-01-18T09:52:02.912Z,99400.78
2023-01-18T09:54:56.280Z,99403.50
2023-01-18T09:57:32.045Z,99401.94
2023-01-18T10:00:00.781Z,99405.53
2023-01-18T10:02:40.816Z,99410.03
2023-01-18T10:05:18.439Z,99408.50
2023-01-18T10:08:05.115Z,99398.31
2023-01-18T10:10:51.427Z,99396.84
2023-01-18T10:13:46.052Z,99397.22
2023-01-18T10:16:14.728Z,99391.16
2023-01-18T10:18:48.225Z,99405.84
2023-01-18T10:21:41.820Z,99404.31
2023-01-18T10:24:30.575Z,99396.84
2023-01-18T10:27:17.396Z,99387.66
2023-01-18T10:30:18.271Z,99403.25
2023-01-18T10:32:54.075Z,99400.00
2023-01-18T10:35:45.245Z,99407.78
2023-01-18T10:38:16.714Z,99401.94
2023-01-18T10:40:49.758Z,99387.41
2023-01-18T10:43:21.408Z,99399.38
2023-01-18T10:45:48.502Z,99406.34
2023-01-18T10:48:28.139Z,99404.03
2023-01-18T10:50:58.639Z,99415.22
2023-01-18T10:53:31.456Z,99410.88
2023-01-18T10:56:24.280Z,99412.56
2023-01-18T10:58:51.378Z,99412.06
2023-01-18T11:01:24.379Z,99425.78
2023-01-18T11:04:07.477Z,99420.91
2023-01-18T11:06:47.165Z,99405.50
2023-01-18T11:09:36.154Z,99427.16
2023-01-18T11:12:33.992Z,99423.03
2023-01-18T11:15:13.114Z,99435.22
2023-01-18T11:17:43.515Z,99428.63
2023-01-18T11:20:25.579Z,99433.84
2023-01-18T11:23:05.728Z,99433.25
2023-01-18T11:25:39.082Z,99435.09
2023-01-18T11:28:18.131Z,99435.25
2023-01-18T11:31:13.766Z,99434.63
2023-01-18T11:33:51.634Z,99431.41
2023-01-18T11:36:20.910Z,99424.69
2023-01-18T11:38:48.267Z,99431.94
2023-01-18T11:41:23.400Z,99423.41
2023-01-18T11:44:22.847Z,99426.00
2023-01-18T11:46:54.798Z,99434.81
2023-01-18T11:49:42.349Z,99433.28
2023-01-18T11:52:17.482Z,99436.72
2023-01-18T11:54:53.495Z,99420.25
2023-01-18T11:57:20.556Z,99433.44
2023-01-18T11:59:49.079Z,99428.25
2023-01-18T12:02:46.020Z,99431.91
2023-01-18T12:05:28.245Z,99439.84
2023-01-18T12:08:13.887Z,99440.00
2023-01-18T12:11:12.902Z,99442.75
2023-01-18T12:13:46.600Z,99437.84
2023-01-18T12:16:32.435Z,99439.75
2023-01-18T12:19:17.717Z,99441.47
2023-01-18T12:21:44.693Z,99435.50
2023-01-18T12:24:20.675Z,99450.91
2023-01-18T12:26:54.178Z,99436.44
2023-01-18T12:29:45.598Z,99436.47
2023-01-18T12:32:27.602Z,99442.63
2023-01-18T12:35:23.646Z,99434.84
2023-01-18T12:38:16.219Z,99433.88
2023-01-18T12:40:50.741Z,99441.66
2023-01-18T12:44:00.163Z,99438.22
2023-01-18T12:46:34.668Z,99433.06
2023-01-18T12:49:11.139Z,99436.66
2023-01-18T12:51:40.368Z,99429.88
2023-01-18T12:54:18.936Z,99432.72
2023-01-18T12:56:49.013Z,99434.59
2023-01-18T12:59:22.296Z,99427.06
2023-01-18T13:02:02.810Z,99418.50
2023-01-18T13:04:39.958Z,99428.28
2023-01-18T13:07:13.768Z,99422.47
2023-01-18T13:09:46.455Z,99434.63
2023-01-18T13:12:13.873Z,99429.75
2023-01-18T13:15:03.598Z,99438.59
2023-01-18T13:17:30.725Z,99445.50
2023-01-18T13:20:07.495Z,99444.72
2023-01-18T13:22:37.554Z,99444.81
2023-01-18T13:25:26.426Z,99451.78
2023-01-18T13:27:59.302Z,99449.22
2023-01-18T13:30:28.757Z,99467.03
2023-01-18T13:32:56.458Z,99451.53
2023-01-18T13:35:33.427Z,99453.13
2023-01-18T13:38:10.297Z,99450.38
2023-01-18T13:40:43.498Z,99456.25
2023-01-18T13:43:43.053Z,99449.31
2023-01-18T13:46:10.183Z,99450.97
2023-01-18T13:48:54.282Z,99461.13
2023-01-18T13:51:37.317Z,99459.31
2023-01-18T13:54:04.594Z,99463.41
2023-01-18T13:56:34.903Z,99464.22
2023-01-18T13:59:19.510Z,99468.34
2023-01-18T14:01:48.861Z,99469.19
2023-01-18T14:04:26.986Z,99458.81
2023-01-18T14:06:58.693Z,99469.13
2023-01-18T14:09:37.237Z,99478.41
2023-01-18T14:12:06.157Z,99470.75
2023-01-18T14:14:37.133Z,99468.78
2023-01-18T14:17:12.657Z,99487.75
2023-01-18T14:19:48.620Z,99496.31
2023-01-18T14:22:37.190Z,99489.56
2023-01-18T14:25:25.335Z,99497.06
2023-01-18T14:28:04.630Z,99495.25
2023-01-18T14:30:34.855Z,99491.72
2023-01-18T14:33:28.331Z,99498.59
2023-01-18T14:35:59.907Z,99508.72
2023-01-18T14:38:27.499Z,99513.03
2023-01-18T14:41:04.801Z,99502.75
2023-01-18T14:43:37.272Z,99515.69
2023-01-18T14:46:17.819Z,99522.50
2023-01-18T14:48:54.793Z,99524.97
2023-01-18T14:51:25.152Z,99513.63
2023-01-18T14:54:00.442Z,99518.78
2023-01-18T14:56:30.239Z,99521.31
2023-01-18T14:59:03.058Z,99522.09
2023-01-18T15:01:38.902Z,99526.81
2023-01-18T15:04:19.424Z,99532.19
2023-01-18T15:07:01.769Z,99539.00
2023-01-18T15:09:32.776Z,99529.53
2023-01-18T15:12:03.573Z,99532.16
2023-01-18T15:14:34.085Z,99538.84
2023-01-18T15:17:06.263Z,99536.28
2023-01-18T15:19:43.712Z,99536.97
2023-01-18T15:22:16.082Z,99525.84
2023-01-18T15:24:45.344Z,99531.75
2023-01-18T15:27:20.222Z,99525.75
2023-01-18T15:29:49.587Z,99532.31
2023-01-18T15:32:19.675Z,99522.34
2023-01-18T15:34:50.124Z,99529.03
2023-01-18T15:37:37.445Z,99533.31
2023-01-18T15:40:07.523Z,99530.72
2023-01-18T15:42:42.931Z,99543.53
2023-01-18T15:45:30.407Z,99540.81
2023-01-18T15:48:07.264Z,99539.06
2023-01-18T15:50:38.184Z,99519.09
2023-01-18T15:53:11.992Z,99536.50
2023-01-18T15:55:39.917Z,99529.56
2023-01-18T15:58:20.586Z,99528.72
2023-01-18T16:01:03.285Z,99534.66
2023-01-18T16:03:40.861Z,99534.59
2023-01-18T16:06:21.281Z,99538.00
2023-01-18T16:09:18.549Z,99541.31
2023-01-18T16:11:52.869Z,99556.66
2023-01-18T16:14:29.023Z,99549.91
2023-01-18T16:16:57.172Z,99555.06
2023-01-18T16:19:31.946Z,99556.84
2023-01-18T16:22:05.092Z,99556.06
2023-01-18T16:24:34.816Z,99553.56
2023-01-18T16:27:11.247Z,99550.88
2023-01-18T16:29:44.037Z,99563.84
2023-01-18T16:32:29.952Z,99561.31
2023-01-18T16:35:00.271Z,99563.00
2023-01-18T16:37:27.875Z,99571.34
2023-01-18T16:39:55.926Z,99561.78
2023-01-18T16:42:36.878Z,99563.59
2023-01-18T16:45:06.322Z,99572.97
2023-01-18T16:47:34.380Z,99556.41
2023-01-18T16:50:01.603Z,99572.88
2023-01-18T16:52:28.922Z,99566.75
2023-01-18T16:54:56.105Z,99577.97
2023-01-18T16:57:26.473Z,99581.41
2023-01-18T16:59:53.944Z,99579.59
2023-01-18T17:02:21.023Z,99590.84
2023-01-18T17:04:48.019Z,99587.41
2023-01-18T17:07:17.709Z,99590.75
2023-01-18T17:09:49.411Z,99587.44
2023-01-18T17:12:16.737Z,99577.06
2023-01-18T17:14:43.807Z,99583.31
2023-01-18T17:17:11.414Z,99597.69
2023-01-18T17:19:38.459Z,99593.50
2023-01-18T17:22:06.566Z,99589.16
2023-01-18T17:24:33.702Z,99588.16
2023-01-18T17:27:01.674Z,99598.50
2023-01-18T17:29:28.716Z,99602.72
2023-01-18T17:31:56.452Z,99596.72
2023-01-18T17:34:28.072Z,99597.78
2023-01-18T17:36:57.908Z,99576.09
2023-01-18T17:39:32.067Z,99601.13
2023-01-18T17:42:14.258Z,99607.03
2023-01-18T17:44:43.563Z,99595.94
2023-01-18T17:47:10.599Z,99604.63
2023-01-18T17:49:37.577Z,99616.53
2023-01-18T17:52:04.839Z,99620.78
2023-01-18T17:54:33.787Z,99628.31
2023-01-18T17:57:01.593Z,99630.88
2023-01-18T17:59:28.705Z,99634.22
2023-01-18T18:01:56.296Z,99627.31
2023-01-18T18:04:23.427Z,99646.97
2023-01-18T18:06:54.307Z,99641.81
2023-01-18T18:09:21.849Z,99651.31
2023-01-18T18:11:48.885Z,99643.34
2023-01-18T18:14:16.898Z,99646.75
2023-01-18T18:16:44.606Z,99653.34
2023-01-18T18:19:15.298Z,99630.00
2023-01-18T18:21:43.050Z,99645.50
2023-01-18T18:24:10.149Z,99656.53
2023-01-18T18:26:37.539Z,99638.47
2023-01-18T18:29:04.887Z,99664.91
2023-01-18T18:31:32.011Z,99657.88
2023-01-18T18:33:59.068Z,99658.06
2023-01-18T18:36:27.329Z,99673.50
2023-01-18T18:38:55.139Z,99662.34
2023-01-18T18:41:22.255Z,99673.38
2023-01-18T18:43:49.327Z,99663.97
2023-01-18T18:46:16.432Z,99668.88
2023-01-18T18:48:43.682Z,99667.97
2023-01-18T18:51:10.860Z,99678.97
2023-01-18T18:53:39.883Z,99680.56
2023-01-18T18:56:10.352Z,99671.84
2023-01-18T18:58:38.874Z,99676.00
2023-01-18T19:01:06.394Z,99681.31
2023-01-18T19:03:35.234Z,99681.31
2023-01-18T19:06:02.852Z,99676.22
2023-01-18T19:08:30.906Z,99663.13
2023-01-18T19:10:58.192Z,99683.88
2023-01-18T19:13:25.848Z,99675.13
2023-01-18T19:15:53.217Z,99690.72
2023-01-18T19:18:20.428Z,99681.91
2023-01-18T19:20:50.541Z,99692.34
2023-01-18T19:23:18.092Z,99691.53
2023-01-18T19:25:46.813Z,99689.53
2023-01-18T19:28:15.122Z,99689.38
2023-01-18T19:30:42.417Z,99689.41
2023-01-18T19:33:11.030Z,99687.75
2023-01-18T19:35:40.928Z,99701.56
2023-01-18T19:38:08.408Z,99705.81
2023-01-18T19:40:36.362Z,99717.03
2023-01-18T19:43:03.715Z,99718.66
2023-01-18T19:45:31.475Z,99722.91
2023-01-18T19:48:00.199Z,99721.16
2023-01-18T19:50:29.364Z,99721.81
2023-01-18T19:52:56.940Z,99724.19
2023-01-18T19:55:25.040Z,99704.97
2023-01-18T19:57:56.143Z,99718.97
2023-01-18T20:00:23.483Z,99703.41
2023-01-18T20:02:50.661Z,99703.41
2023-01-18T20:05:17.858Z,99702.50
2023-01-18T20:07:44.983Z,99716.25
2023-01-18T20:10:12.096Z,99715.47
2023-01-18T20:12:39.650Z,99704.00
2023-01-18T20:15:07.366Z,99717.03
2023-01-18T20:17:34.391Z,99721.16
2023-01-18T20:20:01.679Z,99720.69
2023-01-18T20:22:28.943Z,99712.03
2023-01-18T20:24:56.412Z,99710.31
2023-01-18T20:27:24.049Z,99719.66
2023-01-18T20:29:51.545Z,99709.28
2023-01-18T20:32:18.819Z,99711.00
2023-01-18T20:34:46.917Z,99710.91
2023-01-18T20:37:15.331Z,99709.06
2023-01-18T20:39:42.397Z,99701.19
2023-01-18T20:42:09.770Z,99708.91
2023-01-18T20:44:37.329Z,99713.63
2023-01-18T20:47:04.666Z,99693.59
2023-01-18T20:49:39.247Z,99717.06
2023-01-18T20:52:07.696Z,99704.16
2023-01-18T20:54:36.671Z,99725.53
2023-01-18T20:57:06.458Z,99728.72
2023-01-18T20:59:34.921Z,99727.09
2023-01-18T21:02:03.261Z,99721.38
2023-01-18T21:04:30.585Z,99733.22
2023-01-18T21:06:57.861Z,99730.81
2023-01-18T21:09:26.223Z,99741.09
2023-01-18T21:11:53.257Z,99742.97
2023-01-18T21:14:20.390Z,99752.47
2023-01-18T21:16:48.034Z,99745.53
2023-01-18T21:19:15.275Z,99750.88
2023-01-18T21:21:42.335Z,99755.19
2023-01-18T21:24:09.416Z,99773.03
2023-01-18T21:26:37.621Z,99779.66
2023-01-18T21:29:05.678Z,99776.94
2023-01-18T21:31:33.085Z,99772.38
2023-01-18T21:34:00.190Z,99785.97
2023-01-18T21:36:27.483Z,99798.53
2023-01-18T21:38:55.241Z,99803.63
2023-01-18T21:41:41.167Z,99797.31
2023-01-18T21:44:29.629Z,99814.22
2023-01-18T21:46:56.697Z,99814.69
2023-01-18T21:50:11.269Z,99816.88
2023-01-18T21:52:48.835Z,99823.50
2023-01-18T21:55:16.847Z,99824.91
2023-01-18T21:57:44.247Z,99820.47
2023-01-18T22:00:11.901Z,99821.13
2023-01-18T22:02:39.001Z,99821.00
2023-01-18T22:05:08.623Z,99825.91
2023-01-18T22:07:36.136Z,99822.63
2023-01-18T22:10:06.041Z,99815.28
2023-01-18T22:12:36.032Z,99816.97
2023-01-18T22:15:07.141Z,99813.25
2023-01-18T22:17:34.185Z,99807.84
2023-01-18T22:20:01.806Z,99803.78
2023-01-18T22:22:28.984Z,99798.78
2023-01-18T22:24:57.049Z,99802.28
2023-01-18T22:27:27.662Z,99805.88
2023-01-18T22:29:55.146Z,99804.03
2023-01-18T22:32:22.295Z,99805.31
2023-01-18T22:34:49.306Z,99792.25
2023-01-18T22:37:16.453Z,99810.47
2023-01-18T22:39:43.505Z,99813.81
2023-01-18T22:42:10.550Z,99830.47
2023-01-18T22:44:37.806Z,99832.13
2023-01-18T22:47:04.850Z,99824.38
2023-01-18T22:49:31.864Z,99816.66
2023-01-18T22:51:58.856Z,99820.09
2023-01-18T22:54:26.230Z,99815.94
2023-01-18T22:56:53.434Z,99815.66
2023-01-18T22:59:20.514Z,99829.59
2023-01-18T23:01:47.569Z,99822.91
2023-01-18T23:04:14.579Z,99816.81
2023-01-18T23:06:50.566Z,99828.13
2023-01-18T23:09:17.843Z,99828.13
2023-01-18T23:11:45.720Z,99838.31
2023-01-18T23:14:31.657Z,99835.69
2023-01-18T23:17:17.231Z,99834.09
2023-01-18T23:19:44.308Z,99850.50
2023-01-18T23:22:11.406Z,99853.13
2023-01-18T23:24:39.416Z,99850.72
2023-01-18T23:27:09.646Z,99845.69
2023-01-18T23:29:38.930Z,99836.78
2023-01-18T23:32:07.339Z,99850.78
2023-01-18T23:34:34.420Z,99854.13
2023-01-18T23:37:01.560Z,99850.63
2023-01-18T23:39:46.958Z,99848.22
2023-01-18T23:42:32.239Z,99850.09
2023-01-18T23:45:17.652Z,99850.03
2023-01-18T23:48:03.456Z,99853.53
2023-01-18T23:50:49.550Z,99837.34
2023-01-18T23:53:35.464Z,99846.88
2023-01-18T23:56:02.853Z,99841.00
2023-01-18T23:58:29.829Z,99835.91
